Time;durP1;ratioP1;P1;durP2;ratioP2;P2;SDS_P1;SDS_P2;PMS_P1;PMS_P2;Temp;Humidity;BMP_temperature;BMP_pressure;BME280_temperature;BME280_humidity;BME280_pressure;Samples;Min_cycle;Max_cycle;Signal;HPM_P1;HPM_P2
2022/10/18 00:02:00;;;;;;;;;;;;;;;14.20;61.37;100401.38;1659520;84;21160;-73
2022/10/18 00:04:26;;;;;;;;;;;;;;;14.18;61.46;100395.36;1654933;84;20122;-75
2022/10/18 00:06:53;;;;;;;;;;;;;;;14.16;61.50;100392.84;1655011;84;20099;-72
2022/10/18 00:09:20;;;;;;;;;;;;;;;14.17;61.54;100393.69;1665809;84;20247;-73
2022/10/18 00:11:48;;;;;;;;;;;;;;;14.17;61.56;100389.17;1654930;84;20506;-73
2022/10/18 00:14:14;;;;;;;;;;;;;;;14.17;61.55;100387.83;1654922;84;21736;-70
2022/10/18 00:16:41;;;;;;;;;;;;;;;14.15;61.58;100383.16;1646783;86;20150;-70
2022/10/18 00:19:07;;;;;;;;;;;;;;;14.15;61.60;100375.63;1659766;84;20090;-70
2022/10/18 00:21:33;;;;;;;;;;;;;;;14.15;61.64;100379.15;1669275;85;20098;-70
2022/10/18 00:24:00;;;;;;;;;;;;;;;14.14;61.68;100369.44;1654935;84;20136;-72
2022/10/18 00:26:27;;;;;;;;;;;;;;;14.13;61.74;100366.95;1654958;84;21124;-74
2022/10/18 00:28:57;;;;;;;;;;;;;;;14.12;61.75;100362.59;1655181;85;20118;-72
2022/10/18 00:31:31;;;;;;;;;;;;;;;14.10;61.80;100362.75;1666267;84;20086;-71
2022/10/18 00:34:02;;;;;;;;;;;;;;;14.13;61.74;100355.72;1654887;84;20130;-71
2022/10/18 00:36:29;;;;;;;;;;;;;;;14.11;61.79;100354.22;1655155;84;20436;-72
2022/10/18 00:38:55;;;;;;;;;;;;;;;14.09;61.87;100355.75;1656751;85;21062;-74
2022/10/18 00:41:24;;;;;;;;;;;;;;;14.08;61.94;100357.23;1673054;84;20102;-71
2022/10/18 00:43:59;;;;;;;;;;;;;;;14.07;62.01;100355.59;1672829;85;20092;-72
2022/10/18 00:46:34;;;;;;;;;;;;;;;14.08;61.99;100357.23;1654939;84;20161;-72
2022/10/18 00:49:13;;;;;;;;;;;;;;;14.04;62.06;100359.44;1654504;85;20176;-73
2022/10/18 00:51:48;;;;;;;;;;;;;;;14.03;62.15;100354.24;1665200;84;22002;-73
2022/10/18 00:54:15;;;;;;;;;;;;;;;14.00;62.21;100354.61;1668315;84;20148;-71
2022/10/18 00:56:43;;;;;;;;;;;;;;;13.97;62.32;100353.61;1671923;85;20424;-70
2022/10/18 00:59:10;;;;;;;;;;;;;;;13.95;62.42;100352.42;1683472;85;20098;-72
2022/10/18 01:01:37;;;;;;;;;;;;;;;13.93;62.48;100349.09;1678111;85;20135;-70
2022/10/18 01:04:03;;;;;;;;;;;;;;;13.90;62.57;100344.08;1668283;85;21257;-68
2022/10/18 01:06:30;;;;;;;;;;;;;;;13.89;62.64;100338.91;1665653;85;20121;-72
2022/10/18 01:09:18;;;;;;;;;;;;;;;13.87;62.71;100340.94;1686898;85;20126;-71
2022/10/18 01:12:03;;;;;;;;;;;;;;;13.86;62.74;100340.59;1667607;85;20111;-71
2022/10/18 01:14:50;;;;;;;;;;;;;;;13.82;62.82;100340.61;1685383;84;20098;-72
2022/10/18 01:17:25;;;;;;;;;;;;;;;13.80;62.90;100334.58;1670630;85;21225;-70
2022/10/18 01:20:02;;;;;;;;;;;;;;;13.76;62.97;100333.26;1680139;85;20114;-74
2022/10/18 01:22:35;;;;;;;;;;;;;;;13.73;63.05;100327.75;1666076;85;20160;-72
2022/10/18 01:25:14;;;;;;;;;;;;;;;13.70;63.14;100320.56;1672631;85;20432;-71
2022/10/18 01:27:51;;;;;;;;;;;;;;;13.69;63.25;100317.57;1690087;85;20095;-74
2022/10/18 01:30:43;;;;;;;;;;;;;;;13.67;63.29;100308.86;1701348;84;21262;-72
2022/10/18 01:33:16;;;;;;;;;;;;;;;13.66;63.36;100306.69;1699751;84;20116;-73
2022/10/18 01:35:46;;;;;;;;;;;;;;;13.64;63.39;100300.68;1674096;85;20126;-75
2022/10/18 01:38:16;;;;;;;;;;;;;;;13.63;63.41;100295.52;1681276;85;20098;-74
2022/10/18 01:40:42;;;;;;;;;;;;;;;13.63;63.43;100291.50;1665306;85;20115;-74
2022/10/18 01:43:08;;;;;;;;;;;;;;;13.59;63.43;100281.14;1673987;84;21164;-73
2022/10/18 01:45:35;;;;;;;;;;;;;;;13.60;63.47;100281.98;1682085;85;20094;-73
2022/10/18 01:48:01;;;;;;;;;;;;;;;13.59;63.51;100278.97;1683586;85;20155;-75
2022/10/18 01:50:29;;;;;;;;;;;;;;;13.57;63.53;100272.47;1673353;84;20111;-71
2022/10/18 01:52:55;;;;;;;;;;;;;;;13.57;63.55;100270.29;1675405;84;20111;-73
2022/10/18 01:55:42;;;;;;;;;;;;;;;13.57;63.56;100267.62;1674015;85;21267;-73
2022/10/18 01:58:27;;;;;;;;;;;;;;;13.56;63.55;100271.28;1680349;85;20425;-74
2022/10/18 02:01:09;;;;;;;;;;;;;;;13.55;63.56;100265.62;1690938;85;20119;-70
2022/10/18 02:03:36;;;;;;;;;;;;;;;13.51;63.63;100265.12;1689063;84;20135;-71
2022/10/18 02:06:14;;;;;;;;;;;;;;;13.48;63.68;100269.47;1669115;85;20424;-74
2022/10/18 02:08:54;;;;;;;;;;;;;;;13.47;63.74;100268.31;1665157;84;21194;-71
2022/10/18 02:11:20;;;;;;;;;;;;;;;13.44;63.79;100262.80;1697514;84;20120;-72
2022/10/18 02:13:53;;;;;;;;;;;;;;;13.41;63.86;100257.80;1684898;85;20150;-74
2022/10/18 02:16:39;;;;;;;;;;;;;;;13.42;63.94;100258.63;1674286;85;20165;-73
2022/10/18 02:19:23;;;;;;;;;;;;;;;13.41;64.00;100259.62;1663169;85;20090;-73
2022/10/18 02:21:49;;;;;;;;;;;;;;;13.39;64.05;100255.80;1679136;85;21118;-73
2022/10/18 02:24:15;;;;;;;;;;;;;;;13.39;64.07;100253.63;1679795;85;20133;-75
2022/10/18 02:26:41;;;;;;;;;;;;;;;13.36;64.16;100255.29;1667862;85;20086;-74
2022/10/18 02:29:08;;;;;;;;;;;;;;;13.33;64.21;100252.45;1686181;84;20087;-75
2022/10/18 02:31:47;;;;;;;;;;;;;;;13.32;64.27;100257.45;1685749;84;20102;-72
2022/10/18 02:34:25;;;;;;;;;;;;;;;13.31;64.34;100255.80;1675853;84;21158;-73
2022/10/18 02:36:57;;;;;;;;;;;;;;;13.28;64.39;100250.80;1698769;84;20123;-74
2022/10/18 02:39:30;;;;;;;;;;;;;;;13.25;64.51;100256.47;1668808;85;20115;-71
2022/10/18 02:41:56;;;;;;;;;;;;;;;13.26;64.53;100249.30;1669955;84;20148;-75
2022/10/18 02:44:22;;;;;;;;;;;;;;;13.23;64.62;100247.80;1690932;85;20132;-73
2022/10/18 02:46:49;;;;;;;;;;;;;;;13.21;64.67;100247.14;1686657;85;21147;-72
2022/10/18 02:49:15;;;;;;;;;;;;;;;13.21;64.74;100243.13;1682623;84;20126;-71
2022/10/18 02:51:41;;;;;;;;;;;;;;;13.19;64.84;100240.30;1705499;84;20102;-73
2022/10/18 02:54:07;;;;;;;;;;;;;;;13.16;64.91;100241.47;1703352;84;20094;-72
2022/10/18 02:56:34;;;;;;;;;;;;;;;13.16;64.96;100233.95;1703296;84;20115;-73
2022/10/18 02:59:01;;;;;;;;;;;;;;;13.13;65.05;100232.45;1710759;84;21156;-74
2022/10/18 03:01:27;;;;;;;;;;;;;;;13.12;65.12;100220.58;1711116;84;20156;-73
2022/10/18 03:03:53;;;;;;;;;;;;;;;13.11;65.19;100222.44;1702392;84;20422;-74
2022/10/18 03:06:20;;;;;;;;;;;;;;;13.09;65.34;100225.76;1696947;84;20450;-75
2022/10/18 03:08:46;;;;;;;;;;;;;;;13.11;65.41;100222.94;1678793;84;20173;-72
2022/10/18 03:11:13;;;;;;;;;;;;;;;13.12;65.51;100221.91;1703616;84;21147;-72
2022/10/18 03:13:40;;;;;;;;;;;;;;;13.12;65.54;100215.23;1701651;84;20103;-75
2022/10/18 03:16:06;;;;;;;;;;;;;;;13.13;65.54;100211.08;1672707;84;20156;-76
2022/10/18 03:18:33;;;;;;;;;;;;;;;13.15;65.59;100207.73;1688058;84;20108;-73
2022/10/18 03:21:04;;;;;;;;;;;;;;;13.19;65.55;100208.23;1710087;84;20097;-73
2022/10/18 03:23:30;;;;;;;;;;;;;;;13.22;65.52;100208.70;1711101;84;21152;-73
2022/10/18 03:25:57;;;;;;;;;;;;;;;13.25;65.49;100203.53;1710914;84;20133;-73
2022/10/18 03:28:23;;;;;;;;;;;;;;;13.28;65.41;100203.19;1701004;84;20075;-71
2022/10/18 03:30:49;;;;;;;;;;;;;;;13.30;65.32;100202.02;1707343;84;20313;-74
2022/10/18 03:33:16;;;;;;;;;;;;;;;13.34;65.25;100199.85;1698794;84;20179;-74
2022/10/18 03:35:42;;;;;;;;;;;;;;;13.36;65.15;100198.67;1698717;84;21241;-72
2022/10/18 03:38:09;;;;;;;;;;;;;;;13.37;65.09;100193.67;1710800;84;20073;-75
2022/10/18 03:40:37;;;;;;;;;;;;;;;13.37;65.05;100198.18;1686332;84;20158;-73
2022/10/18 03:43:03;;;;;;;;;;;;;;;13.39;65.00;100193.48;1697485;84;20217;-72
2022/10/18 03:45:29;;;;;;;;;;;;;;;13.38;64.99;100197.99;1698641;84;20131;-75
2022/10/18 03:47:57;;;;;;;;;;;;;;;13.38;65.03;100193.15;1706452;84;20536;-75
2022/10/18 03:50:24;;;;;;;;;;;;;;;13.37;65.10;100191.50;1708259;84;20445;-71
2022/10/18 03:52:50;;;;;;;;;;;;;;;13.35;65.17;100197.48;1679680;84;20471;-74
2022/10/18 03:55:16;;;;;;;;;;;;;;;13.33;65.25;100186.14;1688278;84;20596;-72
2022/10/18 03:57:42;;;;;;;;;;;;;;;13.33;65.27;100190.16;1680750;84;20086;-74
2022/10/18 04:00:10;;;;;;;;;;;;;;;13.33;65.26;100184.81;1663744;85;21267;-72
2022/10/18 04:02:40;;;;;;;;;;;;;;;13.32;65.29;100183.16;1680201;85;20431;-75
2022/10/18 04:05:06;;;;;;;;;;;;;;;13.29;65.38;100184.83;1675239;84;20169;-73
2022/10/18 04:07:34;;;;;;;;;;;;;;;13.28;65.43;100181.32;1692796;84;20102;-71
2022/10/18 04:10:00;;;;;;;;;;;;;;;13.29;65.47;100192.84;1688743;84;20142;-71
2022/10/18 04:12:28;;;;;;;;;;;;;;;13.29;65.49;100183.00;1666363;84;20119;-76
2022/10/18 04:14:55;;;;;;;;;;;;;;;13.29;65.56;100184.34;1664131;85;20118;-72
2022/10/18 04:17:23;;;;;;;;;;;;;;;13.31;65.55;100178.81;1698453;84;20246;-71
2022/10/18 04:19:50;;;;;;;;;;;;;;;13.32;65.50;100186.64;1664421;85;20436;-70
2022/10/18 04:22:16;;;;;;;;;;;;;;;13.34;65.48;100173.97;1684093;85;20493;-71
2022/10/18 04:24:43;;;;;;;;;;;;;;;13.36;65.40;100181.30;1680800;85;21169;-75
2022/10/18 04:27:09;;;;;;;;;;;;;;;13.37;65.35;100170.95;1682640;84;20099;-75
2022/10/18 04:29:36;;;;;;;;;;;;;;;13.39;65.29;100170.77;1667501;85;20198;-74
2022/10/18 04:32:02;;;;;;;;;;;;;;;13.41;65.21;100170.09;1674806;84;20095;-72
2022/10/18 04:34:29;;;;;;;;;;;;;;;13.38;65.22;100169.94;1662965;85;20098;-75
2022/10/18 04:36:55;;;;;;;;;;;;;;;13.37;65.20;100168.28;1670211;85;21452;-72
2022/10/18 04:39:21;;;;;;;;;;;;;;;13.37;65.25;100168.28;1665247;85;20424;-72
2022/10/18 04:41:48;;;;;;;;;;;;;;;13.34;65.29;100168.63;1688112;84;20489;-75
2022/10/18 04:44:14;;;;;;;;;;;;;;;13.35;65.23;100164.92;1684342;84;20456;-72
2022/10/18 04:46:41;;;;;;;;;;;;;;;13.35;65.24;100166.27;1682654;84;20120;-73
2022/10/18 04:49:07;;;;;;;;;;;;;;;13.34;65.27;100161.11;1674346;85;21683;-73
2022/10/18 04:51:33;;;;;;;;;;;;;;;13.35;65.26;100165.42;1671028;85;20106;-72
2022/10/18 04:54:00;;;;;;;;;;;;;;;13.37;65.22;100162.94;1671188;84;20135;-74
2022/10/18 04:56:26;;;;;;;;;;;;;;;13.38;65.22;100161.91;1693492;84;20195;-73
2022/10/18 04:58:52;;;;;;;;;;;;;;;13.41;65.19;100162.91;1686175;84;20179;-74
2022/10/18 05:01:18;;;;;;;;;;;;;;;13.44;65.18;100159.91;1661043;84;21811;-74
2022/10/18 05:03:45;;;;;;;;;;;;;;;13.50;65.08;100160.53;1688719;84;20077;-73
2022/10/18 05:06:11;;;;;;;;;;;;;;;13.60;64.90;100164.36;1694169;84;20098;-75
2022/10/18 05:08:37;;;;;;;;;;;;;;;13.72;64.68;100158.11;1679581;84;20127;-71
2022/10/18 05:11:04;;;;;;;;;;;;;;;13.87;64.35;100163.08;1694421;84;20101;-71
2022/10/18 05:13:32;;;;;;;;;;;;;;;14.03;63.86;100158.45;1694377;84;21172;-74
2022/10/18 05:15:59;;;;;;;;;;;;;;;14.21;63.48;100159.01;1670617;84;20074;-76
2022/10/18 05:18:26;;;;;;;;;;;;;;;14.40;62.94;100160.42;1694336;84;20093;-73
2022/10/18 05:20:53;;;;;;;;;;;;;;;14.63;62.32;100160.41;1688468;84;20150;-73
2022/10/18 05:23:20;;;;;;;;;;;;;;;14.83;61.71;100160.26;1677544;84;20459;-73
2022/10/18 05:25:47;;;;;;;;;;;;;;;15.08;60.97;100160.34;1670940;84;21176;-71
2022/10/18 05:28:14;;;;;;;;;;;;;;;15.30;60.34;100163.44;1680019;84;20143;-72
2022/10/18 05:30:40;;;;;;;;;;;;;;;15.53;59.73;100159.39;1665560;84;20218;-73
2022/10/18 05:33:07;;;;;;;;;;;;;;;15.78;59.03;100159.40;1683829;84;20158;-74
2022/10/18 05:35:33;;;;;;;;;;;;;;;16.02;58.25;100159.08;1678366;84;20087;-72
2022/10/18 05:38:02;;;;;;;;;;;;;;;16.28;57.52;100158.54;1692224;84;21821;-74
2022/10/18 05:40:29;;;;;;;;;;;;;;;16.57;56.81;100159.80;1676049;84;20207;-71
2022/10/18 05:42:55;;;;;;;;;;;;;;;16.86;56.05;100158.81;1689641;84;20088;-70
2022/10/18 05:45:21;;;;;;;;;;;;;;;17.15;55.13;100158.60;1694241;84;20109;-73
2022/10/18 05:47:48;;;;;;;;;;;;;;;17.46;54.24;100154.17;1694034;84;20483;-73
2022/10/18 05:50:14;;;;;;;;;;;;;;;17.77;53.30;100157.77;1692307;84;21924;-72
2022/10/18 05:52:40;;;;;;;;;;;;;;;18.02;52.21;100153.51;1678504;84;20119;-70
2022/10/18 05:55:07;;;;;;;;;;;;;;;18.25;51.44;100159.37;1686539;84;20149;-72
2022/10/18 05:57:34;;;;;;;;;;;;;;;18.47;50.67;100154.19;1702798;84;20093;-73
2022/10/18 06:00:00;;;;;;;;;;;;;;;18.65;50.08;100164.36;1674586;84;20118;-75
2022/10/18 06:02:26;;;;;;;;;;;;;;;18.86;49.42;100156.59;1676049;84;21097;-75
2022/10/18 06:04:52;;;;;;;;;;;;;;;19.09;48.91;100154.30;1693991;84;20118;-70
2022/10/18 06:07:19;;;;;;;;;;;;;;;19.33;48.26;100153.65;1694031;84;20190;-74
2022/10/18 06:09:45;;;;;;;;;;;;;;;19.53;47.71;100153.11;1693354;84;20236;-72
2022/10/18 06:12:11;;;;;;;;;;;;;;;19.73;47.16;100147.66;1681438;84;20241;-72
2022/10/18 06:14:37;;;;;;;;;;;;;;;19.95;46.82;100148.17;1668256;84;21385;-70
2022/10/18 06:17:04;;;;;;;;;;;;;;;20.20;46.17;100147.24;1656801;85;20470;-71
2022/10/18 06:19:31;;;;;;;;;;;;;;;20.47;45.58;100151.97;1696955;84;20425;-71
2022/10/18 06:21:57;;;;;;;;;;;;;;;20.72;44.92;100150.14;1697199;84;21111;-74
2022/10/18 06:24:23;;;;;;;;;;;;;;;20.94;44.34;100147.34;1674587;85;20204;-72
2022/10/18 06:26:50;;;;;;;;;;;;;;;21.15;43.82;100146.67;1702417;84;21793;-71
2022/10/18 06:29:16;;;;;;;;;;;;;;;21.37;43.29;100151.46;1666197;85;20463;-75
2022/10/18 06:31:43;;;;;;;;;;;;;;;21.60;43.06;100144.02;1693433;84;20098;-72
2022/10/18 06:34:09;;;;;;;;;;;;;;;21.92;42.59;100146.07;1680473;85;20237;-72
2022/10/18 06:36:35;;;;;;;;;;;;;;;22.27;41.88;100144.33;1679518;85;20128;-71
2022/10/18 06:39:02;;;;;;;;;;;;;;;22.57;41.23;100144.32;1675371;85;21170;-71
2022/10/18 06:41:29;;;;;;;;;;;;;;;22.89;40.73;100147.05;1693498;84;20204;-70
2022/10/18 06:44:02;;;;;;;;;;;;;;;23.21;40.05;100145.66;1646962;85;20104;-74
2022/10/18 06:46:25;;;;;;;;;;;;;;;23.46;39.67;100140.55;1694033;84;20085;-71
2022/10/18 06:48:51;;;;;;;;;;;;;;;23.78;39.30;100143.13;1694413;84;20105;-70
2022/10/18 06:51:18;;;;;;;;;;;;;;;24.08;38.59;100132.92;1694284;84;21156;-70
2022/10/18 06:53:45;;;;;;;;;;;;;;;24.33;38.05;100138.83;1670675;84;20125;-69
2022/10/18 06:56:11;;;;;;;;;;;;;;;24.55;37.65;100138.44;1677163;84;20230;-69
2022/10/18 06:58:39;;;;;;;;;;;;;;;24.80;37.28;100141.31;1688739;84;20450;-69
2022/10/18 07:01:09;;;;;;;;;;;;;;;25.04;36.76;100144.16;1693357;84;20098;-68
2022/10/18 07:03:35;;;;;;;;;;;;;;;25.24;36.49;100137.66;1669019;84;21174;-67
2022/10/18 07:06:02;;;;;;;;;;;;;;;25.50;36.29;100138.87;1676106;84;20079;-67
2022/10/18 07:08:29;;;;;;;;;;;;;;;25.75;35.68;100129.16;1694399;84;20427;-71
2022/10/18 07:10:57;;;;;;;;;;;;;;;25.97;35.28;100135.94;1693609;84;20485;-70
2022/10/18 07:13:23;;;;;;;;;;;;;;;26.14;35.06;100138.63;1694317;84;20089;-71
2022/10/18 07:16:08;;;;;;;;;;;;;;;26.30;34.76;100130.90;1694344;84;22192;-70
2022/10/18 07:18:36;;;;;;;;;;;;;;;26.45;34.73;100127.48;1673163;84;20111;-71
2022/10/18 07:21:04;;;;;;;;;;;;;;;26.61;34.59;100136.94;1692772;84;20097;-71
2022/10/18 07:23:32;;;;;;;;;;;;;;;26.75;34.51;100142.23;1694388;84;20496;-70
2022/10/18 07:26:00;;;;;;;;;;;;;;;26.86;34.31;100139.91;1670780;84;20123;-70
2022/10/18 07:28:28;;;;;;;;;;;;;;;26.96;34.02;100135.88;1694684;84;21262;-71
2022/10/18 07:30:54;;;;;;;;;;;;;;;26.99;33.90;100131.81;1670912;84;20468;-71
2022/10/18 07:33:20;;;;;;;;;;;;;;;27.04;33.91;100131.05;1680809;84;20472;-70
2022/10/18 07:35:46;;;;;;;;;;;;;;;27.07;33.75;100132.69;1684695;84;20184;-71
2022/10/18 07:38:12;;;;;;;;;;;;;;;27.10;33.92;100132.17;1694297;84;20085;-71
2022/10/18 07:40:39;;;;;;;;;;;;;;;27.14;33.92;100133.84;1673674;84;22079;-70
2022/10/18 07:43:05;;;;;;;;;;;;;;;27.20;33.96;100132.23;1691807;84;20092;-71
2022/10/18 07:45:32;;;;;;;;;;;;;;;27.30;33.83;100131.47;1694404;84;20105;-71
2022/10/18 07:47:58;;;;;;;;;;;;;;;27.38;33.79;100123.61;1694379;84;20073;-72
2022/10/18 07:50:25;;;;;;;;;;;;;;;27.48;33.67;100126.95;1694444;84;20085;-70
2022/10/18 07:52:51;;;;;;;;;;;;;;;27.59;33.41;100125.94;1694346;84;20715;-71
2022/10/18 07:55:18;;;;;;;;;;;;;;;27.73;33.23;100125.73;1671713;84;20166;-71
2022/10/18 07:57:45;;;;;;;;;;;;;;;27.81;33.13;100111.56;1685925;84;20421;-70
2022/10/18 08:00:12;;;;;;;;;;;;;;;27.88;33.01;100118.95;1694659;84;20315;-71
2022/10/18 08:02:38;;;;;;;;;;;;;;;27.94;32.94;100113.80;1680575;85;20111;-70
2022/10/18 08:05:05;;;;;;;;;;;;;;;28.04;32.80;100111.66;1681929;85;21172;-69
2022/10/18 08:07:32;;;;;;;;;;;;;;;28.11;32.72;100114.41;1690911;85;20087;-69
2022/10/18 08:09:58;;;;;;;;;;;;;;;28.21;32.53;100108.13;1674384;85;20431;-70
2022/10/18 08:12:25;;;;;;;;;;;;;;;28.33;32.28;100106.52;1668400;85;20104;-71
2022/10/18 08:14:51;;;;;;;;;;;;;;;28.45;32.03;100105.17;1690804;85;20128;-70
2022/10/18 08:17:17;;;;;;;;;;;;;;;28.58;31.87;100105.17;1668291;85;21166;-70
2022/10/18 08:19:44;;;;;;;;;;;;;;;28.72;31.67;100096.73;1680495;84;20086;-70
2022/10/18 08:22:10;;;;;;;;;;;;;;;28.89;31.16;100090.98;1675599;84;20413;-71
2022/10/18 08:24:37;;;;;;;;;;;;;;;29.00;31.09;100088.48;1691775;84;20428;-70
2022/10/18 08:27:04;;;;;;;;;;;;;;;29.12;30.73;100081.61;1663011;85;20122;-71
2022/10/18 08:29:31;;;;;;;;;;;;;;;29.26;30.50;100079.16;1692937;84;21182;-70
2022/10/18 08:31:58;;;;;;;;;;;;;;;29.42;30.27;100081.30;1662992;85;20107;-71
2022/10/18 08:34:25;;;;;;;;;;;;;;;29.51;29.94;100071.41;1682509;85;20118;-71
2022/10/18 08:36:52;;;;;;;;;;;;;;;29.59;29.56;100070.26;1662967;85;20284;-70
2022/10/18 08:39:18;;;;;;;;;;;;;;;29.69;29.54;100063.93;1665617;84;20114;-72
2022/10/18 08:41:57;;;;;;;;;;;;;;;29.86;29.14;100063.86;1702491;84;21280;-71
2022/10/18 08:44:27;;;;;;;;;;;;;;;30.06;28.67;100051.14;1704963;84;20090;-71
2022/10/18 08:47:02;;;;;;;;;;;;;;;30.30;28.15;100050.68;1667548;84;20434;-71
2022/10/18 08:49:35;;;;;;;;;;;;;;;30.58;27.76;100049.13;1686515;84;20126;-70
2022/10/18 08:52:03;;;;;;;;;;;;;;;30.77;27.28;100049.48;1666686;84;20119;-70
2022/10/18 08:54:53;;;;;;;;;;;;;;;30.86;26.85;100045.02;1662315;85;21163;-70
2022/10/18 08:57:21;;;;;;;;;;;;;;;30.85;26.57;100044.75;1693927;84;20136;-70
2022/10/18 08:59:48;;;;;;;;;;;;;;;30.86;26.56;100040.08;1694455;84;20129;-70
2022/10/18 09:02:21;;;;;;;;;;;;;;;30.85;26.67;100030.19;1670821;84;20113;-71
2022/10/18 09:04:53;;;;;;;;;;;;;;;31.00;26.81;100031.46;1694035;84;20165;-70
2022/10/18 09:07:50;;;;;;;;;;;;;;;31.24;26.42;100031.44;1687688;84;21181;-70
2022/10/18 09:10:32;;;;;;;;;;;;;;;31.36;26.23;100028.56;1684993;84;20164;-71
2022/10/18 09:13:18;;;;;;;;;;;;;;;31.53;26.23;100022.59;1694573;84;20086;-70
2022/10/18 09:15:58;;;;;;;;;;;;;;;31.62;25.91;100020.84;1694469;84;20138;-70
2022/10/18 09:18:40;;;;;;;;;;;;;;;31.63;25.74;100023.28;1694316;84;20602;-70
2022/10/18 09:21:17;;;;;;;;;;;;;;;31.65;25.72;100020.25;1670888;84;21241;-70
2022/10/18 09:23:46;;;;;;;;;;;;;;;31.64;25.75;100015.30;1689977;84;20085;-70
2022/10/18 09:26:24;;;;;;;;;;;;;;;31.53;25.74;100017.09;1694312;84;20101;-71
2022/10/18 09:28:57;;;;;;;;;;;;;;;31.57;25.99;100013.45;1694386;84;20093;-71
2022/10/18 09:31:45;;;;;;;;;;;;;;;31.72;25.74;100021.52;1650428;84;20500;-71
2022/10/18 09:34:21;;;;;;;;;;;;;;;31.82;25.73;100015.05;1684461;84;21148;-70
2022/10/18 09:36:50;;;;;;;;;;;;;;;32.01;25.67;100014.53;1675425;84;20099;-70
2022/10/18 09:39:22;;;;;;;;;;;;;;;32.25;25.52;100009.72;1694201;84;20455;-71
2022/10/18 09:41:54;;;;;;;;;;;;;;;32.51;25.27;100007.39;1697840;84;20102;-71
2022/10/18 09:44:24;;;;;;;;;;;;;;;32.69;24.99;100003.79;1702470;83;20130;-71
2022/10/18 09:47:11;;;;;;;;;;;;;;;32.78;24.83;100002.51;1670863;84;20946;-71
2022/10/18 09:49:46;;;;;;;;;;;;;;;32.89;24.74;99999.27;1673511;84;20119;-71
2022/10/18 09:52:16;;;;;;;;;;;;;;;33.02;24.60;99994.06;1684486;84;20501;-71
2022/10/18 09:55:00;;;;;;;;;;;;;;;33.10;24.50;99992.01;1685722;83;20444;-71
2022/10/18 09:57:32;;;;;;;;;;;;;;;33.19;24.34;99984.67;1706917;84;20175;-71
2022/10/18 09:59:59;;;;;;;;;;;;;;;33.10;24.37;99986.50;1668075;85;21395;-71
2022/10/18 10:02:25;;;;;;;;;;;;;;;32.98;24.33;99975.38;1678259;84;20083;-73
2022/10/18 10:04:53;;;;;;;;;;;;;;;32.77;24.32;99970.00;1682119;84;20195;-71
2022/10/18 10:07:26;;;;;;;;;;;;;;;32.48;24.76;99977.70;1678803;84;20082;-71
2022/10/18 10:09:57;;;;;;;;;;;;;;;32.18;24.92;99966.64;1704236;84;20087;-71
2022/10/18 10:12:29;;;;;;;;;;;;;;;31.76;25.41;99968.09;1702048;84;21198;-71
2022/10/18 10:15:19;;;;;;;;;;;;;;;31.40;25.85;99962.25;1685732;84;20135;-71
2022/10/18 10:18:02;;;;;;;;;;;;;;;31.15;26.49;99966.72;1702205;84;20442;-71
2022/10/18 10:20:52;;;;;;;;;;;;;;;31.03;26.58;99962.99;1679765;84;21002;-70
2022/10/18 10:23:27;;;;;;;;;;;;;;;30.93;26.88;99951.30;1691652;84;20134;-70
2022/10/18 10:25:54;;;;;;;;;;;;;;;30.87;26.70;99951.09;1676601;84;21822;-71
2022/10/18 10:28:23;;;;;;;;;;;;;;;30.68;26.70;99945.52;1669818;84;20141;-71
2022/10/18 10:30:49;;;;;;;;;;;;;;;30.48;26.98;99940.22;1693652;84;20098;-71
2022/10/18 10:33:33;;;;;;;;;;;;;;;30.30;27.29;99941.73;1695443;84;20122;-70
2022/10/18 10:36:01;;;;;;;;;;;;;;;30.15;27.62;99941.88;1698939;84;20089;-70
2022/10/18 10:38:29;;;;;;;;;;;;;;;29.99;27.71;99934.88;1687997;84;21347;-70
2022/10/18 10:40:55;;;;;;;;;;;;;;;29.82;27.81;99931.18;1702425;84;20149;-70
2022/10/18 10:43:27;;;;;;;;;;;;;;;29.62;28.26;99920.30;1680940;84;20142;-70
2022/10/18 10:46:08;;;;;;;;;;;;;;;29.45;28.61;99909.45;1698913;84;20107;-71
2022/10/18 10:48:46;;;;;;;;;;;;;;;29.36;28.89;99908.68;1681454;84;20085;-70
2022/10/18 10:51:13;;;;;;;;;;;;;;;29.30;28.85;99898.88;1711120;84;22160;-70
2022/10/18 10:53:44;;;;;;;;;;;;;;;29.20;28.91;99889.86;1680312;84;20128;-70
2022/10/18 10:56:22;;;;;;;;;;;;;;;29.10;29.04;99890.70;1692578;84;20147;-70
2022/10/18 10:58:50;;;;;;;;;;;;;;;28.95;29.09;99888.05;1682528;85;20076;-70
2022/10/18 11:01:28;;;;;;;;;;;;;;;28.75;29.25;99882.12;1682552;85;20100;-71
2022/10/18 11:03:57;;;;;;;;;;;;;;;28.57;29.47;99877.77;1680438;85;22116;-71
2022/10/18 11:06:42;;;;;;;;;;;;;;;28.35;29.77;99875.89;1682511;85;20088;-70
2022/10/18 11:09:12;;;;;;;;;;;;;;;28.20;29.97;99869.08;1613449;85;20448;-72
2022/10/18 11:11:40;;;;;;;;;;;;;;;28.04;30.20;99869.11;1682262;85;20120;-71
2022/10/18 11:14:15;;;;;;;;;;;;;;;27.95;30.48;99865.81;1693382;84;20135;-71
2022/10/18 11:16:51;;;;;;;;;;;;;;;27.80;30.71;99858.42;1687643;84;21103;-70
2022/10/18 11:19:33;;;;;;;;;;;;;;;27.68;31.00;99856.52;1682422;85;20413;-71
2022/10/18 11:22:01;;;;;;;;;;;;;;;27.55;31.12;99849.68;1682625;85;20092;-70
2022/10/18 11:24:27;;;;;;;;;;;;;;;27.44;31.33;99845.83;1682463;85;20151;-70
2022/10/18 11:27:15;;;;;;;;;;;;;;;27.39;31.39;99842.55;1682594;85;20116;-71
2022/10/18 11:30:08;;;;;;;;;;;;;;;27.35;31.53;99846.08;1682588;85;21256;-71
2022/10/18 11:32:53;;;;;;;;;;;;;;;27.35;31.49;99833.21;1682573;85;20099;-71
2022/10/18 11:35:26;;;;;;;;;;;;;;;27.35;31.29;99829.11;1682108;85;20103;-71
2022/10/18 11:37:59;;;;;;;;;;;;;;;27.27;31.14;99820.09;1690795;84;20141;-71
2022/10/18 11:40:44;;;;;;;;;;;;;;;27.20;31.27;99819.54;1682204;85;20096;-71
2022/10/18 11:43:17;;;;;;;;;;;;;;;27.19;31.50;99815.73;1690906;84;21563;-71
2022/10/18 11:46:04;;;;;;;;;;;;;;;27.17;31.60;99813.78;1682554;85;20116;-70
2022/10/18 11:48:53;;;;;;;;;;;;;;;27.14;31.59;99800.70;1681623;85;20096;-71
2022/10/18 11:51:25;;;;;;;;;;;;;;;27.09;31.70;99791.93;1689688;84;20127;-72
2022/10/18 11:54:23;;;;;;;;;;;;;;;27.07;31.74;99794.66;1682825;84;20430;-71
2022/10/18 11:56:56;;;;;;;;;;;;;;;27.05;31.55;99784.56;1672418;84;21151;-71
2022/10/18 11:59:34;;;;;;;;;;;;;;;26.98;31.43;99775.81;1696059;84;20112;-72
2022/10/18 12:02:16;;;;;;;;;;;;;;;26.93;31.75;99776.06;1675456;84;20173;-71
2022/10/18 12:04:46;;;;;;;;;;;;;;;26.82;32.32;99775.79;1704203;84;20102;-70
2022/10/18 12:07:14;;;;;;;;;;;;;;;26.59;32.67;99765.31;1695163;84;20138;-71
2022/10/18 12:09:42;;;;;;;;;;;;;;;26.51;32.66;99762.28;1686027;84;20629;-72
2022/10/18 12:12:28;;;;;;;;;;;;;;;26.43;32.76;99763.62;1682526;85;20162;-71
2022/10/18 12:15:00;;;;;;;;;;;;;;;26.33;32.86;99758.92;1662616;85;20086;-70
2022/10/18 12:17:33;;;;;;;;;;;;;;;26.22;33.06;99757.79;1662921;85;20094;-72
2022/10/18 12:20:37;;;;;;;;;;;;;;;26.12;33.32;99754.48;1685072;84;20090;-70
2022/10/18 12:23:30;;;;;;;;;;;;;;;26.07;33.68;99753.59;1689399;84;21165;-70
2022/10/18 12:26:02;;;;;;;;;;;;;;;26.02;33.70;99751.64;1670019;84;20170;-70
2022/10/18 12:28:38;;;;;;;;;;;;;;;25.96;33.61;99746.44;1683349;84;20122;-71
2022/10/18 12:31:16;;;;;;;;;;;;;;;25.91;33.80;99747.77;1668313;85;20134;-70
2022/10/18 12:33:48;;;;;;;;;;;;;;;25.84;34.07;99744.47;1675399;85;20193;-71
2022/10/18 12:36:22;;;;;;;;;;;;;;;25.72;34.38;99741.92;1662951;85;21097;-71
2022/10/18 12:38:57;;;;;;;;;;;;;;;25.63;34.58;99732.59;1663101;85;20134;-71
2022/10/18 12:41:28;;;;;;;;;;;;;;;25.55;34.82;99738.55;1672472;84;20094;-70
2022/10/18 12:44:08;;;;;;;;;;;;;;;25.48;34.96;99727.04;1689681;84;20086;-71
2022/10/18 12:46:44;;;;;;;;;;;;;;;25.36;35.21;99731.30;1661992;85;20154;-71
2022/10/18 12:49:12;;;;;;;;;;;;;;;25.27;35.51;99729.28;1663150;85;21115;-71
2022/10/18 12:51:58;;;;;;;;;;;;;;;25.13;35.68;99725.63;1663092;85;20162;-70
2022/10/18 12:54:29;;;;;;;;;;;;;;;25.05;35.67;99729.39;1663106;85;20106;-71
2022/10/18 12:56:56;;;;;;;;;;;;;;;24.96;35.85;99715.95;1664743;84;20785;-70